sensor_id;sensor_type;location;lat;lon;timestamp;temperature;humidity
9885;DHT22;4981;50.966;4.842;2024-03-06T00:00:06;7.30;1.00
9885;DHT22;4981;50.966;4.842;2024-03-06T00:02:34;7.10;1.00
9885;DHT22;4981;50.966;4.842;2024-03-06T00:05:01;7.90;1.00
9885;DHT22;4981;50.966;4.842;2024-03-06T00:07:28;7.30;1.00
9885;DHT22;4981;50.966;4.842;2024-03-06T00:09:55;7.10;1.00
9885;DHT22;4981;50.966;4.842;2024-03-06T00:12:22;7.10;1.00
9885;DHT22;4981;50.966;4.842;2024-03-06T00:14:51;7.10;1.00
9885;DHT22;4981;50.966;4.842;2024-03-06T00:17:17;7.10;1.00
9885;DHT22;4981;50.966;4.842;2024-03-06T00:19:44;7.00;1.00
9885;DHT22;4981;50.966;4.842;2024-03-06T00:22:12;7.00;1.00
9885;DHT22;4981;50.966;4.842;2024-03-06T00:24:39;7.70;1.00
9885;DHT22;4981;50.966;4.842;2024-03-06T00:27:06;7.00;1.00
9885;DHT22;4981;50.966;4.842;2024-03-06T00:29:33;7.00;1.00
9885;DHT22;4981;50.966;4.842;2024-03-06T00:32:03;6.90;1.00
9885;DHT22;4981;50.966;4.842;2024-03-06T00:34:30;6.90;1.00
9885;DHT22;4981;50.966;4.842;2024-03-06T00:36:57;6.90;1.00
9885;DHT22;4981;50.966;4.842;2024-03-06T00:39:24;6.90;1.00
9885;DHT22;4981;50.966;4.842;2024-03-06T00:41:51;7.00;1.00
9885;DHT22;4981;50.966;4.842;2024-03-06T00:44:18;6.90;1.00
9885;DHT22;4981;50.966;4.842;2024-03-06T00:46:45;6.90;1.00
9885;DHT22;4981;50.966;4.842;2024-03-06T00:49:14;7.80;1.00
9885;DHT22;4981;50.966;4.842;2024-03-06T00:51:41;6.70;1.00
9885;DHT22;4981;50.966;4.842;2024-03-06T00:54:08;6.60;1.00
9885;DHT22;4981;50.966;4.842;2024-03-06T00:56:37;4.90;1.00
9885;DHT22;4981;50.966;4.842;2024-03-06T00:59:05;6.60;1.00
9885;DHT22;4981;50.966;4.842;2024-03-06T01:01:32;6.30;1.00
9885;DHT22;4981;50.966;4.842;2024-03-06T01:03:59;6.20;1.00
9885;DHT22;4981;50.966;4.842;2024-03-06T01:06:27;5.80;1.00
9885;DHT22;4981;50.966;4.842;2024-03-06T01:08:55;6.20;1.00
9885;DHT22;4981;50.966;4.842;2024-03-06T01:11:22;6.30;1.00
9885;DHT22;4981;50.966;4.842;2024-03-06T01:13:49;6.40;1.00
9885;DHT22;4981;50.966;4.842;2024-03-06T01:16:16;6.40;1.00
9885;DHT22;4981;50.966;4.842;2024-03-06T01:18:43;6.50;1.00
9885;DHT22;4981;50.966;4.842;2024-03-06T01:21:10;6.30;1.00
9885;DHT22;4981;50.966;4.842;2024-03-06T01:23:39;5.80;1.00
9885;DHT22;4981;50.966;4.842;2024-03-06T01:26:05;5.80;1.00
9885;DHT22;4981;50.966;4.842;2024-03-06T01:28:32;6.00;1.00
9885;DHT22;4981;50.966;4.842;2024-03-06T01:30:59;6.20;1.00
9885;DHT22;4981;50.966;4.842;2024-03-06T01:33:26;6.20;1.00
9885;DHT22;4981;50.966;4.842;2024-03-06T01:35:53;6.20;1.00
9885;DHT22;4981;50.966;4.842;2024-03-06T01:38:20;6.10;1.00
9885;DHT22;4981;50.966;4.842;2024-03-06T01:40:49;5.90;1.00
9885;DHT22;4981;50.966;4.842;2024-03-06T01:43:20;7.10;1.00
9885;DHT22;4981;50.966;4.842;2024-03-06T01:45:47;5.80;1.00
9885;DHT22;4981;50.966;4.842;2024-03-06T01:48:16;5.70;1.00
9885;DHT22;4981;50.966;4.842;2024-03-06T01:50:43;5.80;1.00
9885;DHT22;4981;50.966;4.842;2024-03-06T01:53:10;5.80;1.00
9885;DHT22;4981;50.966;4.842;2024-03-06T01:55:38;5.60;1.00
9885;DHT22;4981;50.966;4.842;2024-03-06T01:58:06;5.60;1.00
9885;DHT22;4981;50.966;4.842;2024-03-06T02:00:35;5.50;1.00
9885;DHT22;4981;50.966;4.842;2024-03-06T02:03:02;5.40;1.00
9885;DHT22;4981;50.966;4.842;2024-03-06T02:05:30;5.30;1.00
9885;DHT22;4981;50.966;4.842;2024-03-06T02:07:58;5.20;1.00
9885;DHT22;4981;50.966;4.842;2024-03-06T02:10:26;5.20;1.00
9885;DHT22;4981;50.966;4.842;2024-03-06T02:12:53;5.20;1.00
9885;DHT22;4981;50.966;4.842;2024-03-06T02:15:22;5.20;1.00
9885;DHT22;4981;50.966;4.842;2024-03-06T02:17:49;5.20;1.00
9885;DHT22;4981;50.966;4.842;2024-03-06T02:20:16;5.20;1.00
9885;DHT22;4981;50.966;4.842;2024-03-06T02:22:45;5.30;1.00
9885;DHT22;4981;50.966;4.842;2024-03-06T02:25:12;5.20;1.00
9885;DHT22;4981;50.966;4.842;2024-03-06T02:27:40;5.00;1.00
9885;DHT22;4981;50.966;4.842;2024-03-06T02:30:08;5.00;1.00
9885;DHT22;4981;50.966;4.842;2024-03-06T02:32:35;5.20;1.00
9885;DHT22;4981;50.966;4.842;2024-03-06T02:35:02;5.30;1.00
9885;DHT22;4981;50.966;4.842;2024-03-06T02:37:34;5.10;1.00
9885;DHT22;4981;50.966;4.842;2024-03-06T02:40:02;4.90;1.00
9885;DHT22;4981;50.966;4.842;2024-03-06T02:42:32;5.00;1.00
9885;DHT22;4981;50.966;4.842;2024-03-06T02:44:59;5.00;1.00
9885;DHT22;4981;50.966;4.842;2024-03-06T02:47:26;5.00;1.00
9885;DHT22;4981;50.966;4.842;2024-03-06T02:49:53;5.00;1.00
9885;DHT22;4981;50.966;4.842;2024-03-06T02:52:20;4.90;1.00
9885;DHT22;4981;50.966;4.842;2024-03-06T02:54:48;4.80;1.00
9885;DHT22;4981;50.966;4.842;2024-03-06T02:57:16;4.90;1.00
9885;DHT22;4981;50.966;4.842;2024-03-06T02:59:43;4.80;1.00
9885;DHT22;4981;50.966;4.842;2024-03-06T03:02:10;4.80;1.00
9885;DHT22;4981;50.966;4.842;2024-03-06T03:04:37;4.70;1.00
9885;DHT22;4981;50.966;4.842;2024-03-06T03:07:04;4.80;1.00
9885;DHT22;4981;50.966;4.842;2024-03-06T03:09:31;4.80;1.00
9885;DHT22;4981;50.966;4.842;2024-03-06T03:11:58;4.70;1.00
9885;DHT22;4981;50.966;4.842;2024-03-06T03:14:26;4.60;1.00
9885;DHT22;4981;50.966;4.842;2024-03-06T03:16:54;4.50;1.00
9885;DHT22;4981;50.966;4.842;2024-03-06T03:19:21;4.40;1.00
9885;DHT22;4981;50.966;4.842;2024-03-06T03:21:48;4.40;1.00
9885;DHT22;4981;50.966;4.842;2024-03-06T03:24:14;4.30;1.00
9885;DHT22;4981;50.966;4.842;2024-03-06T03:26:42;4.20;1.00
9885;DHT22;4981;50.966;4.842;2024-03-06T03:29:09;4.10;1.00
9885;DHT22;4981;50.966;4.842;2024-03-06T03:31:37;4.10;1.00
9885;DHT22;4981;50.966;4.842;2024-03-06T03:34:04;4.10;1.00
9885;DHT22;4981;50.966;4.842;2024-03-06T03:36:31;4.10;1.00
9885;DHT22;4981;50.966;4.842;2024-03-06T03:38:59;4.00;1.00
9885;DHT22;4981;50.966;4.842;2024-03-06T03:41:26;4.00;1.00
9885;DHT22;4981;50.966;4.842;2024-03-06T03:43:52;4.10;1.00
9885;DHT22;4981;50.966;4.842;2024-03-06T03:46:19;4.00;1.00
9885;DHT22;4981;50.966;4.842;2024-03-06T03:48:48;4.10;1.00
9885;DHT22;4981;50.966;4.842;2024-03-06T03:51:15;4.00;1.00
9885;DHT22;4981;50.966;4.842;2024-03-06T03:53:42;3.90;1.00
9885;DHT22;4981;50.966;4.842;2024-03-06T03:56:09;3.90;1.00
9885;DHT22;4981;50.966;4.842;2024-03-06T03:58:37;3.90;1.00
9885;DHT22;4981;50.966;4.842;2024-03-06T04:01:04;3.80;1.00
9885;DHT22;4981;50.966;4.842;2024-03-06T04:03:31;3.90;1.00
9885;DHT22;4981;50.966;4.842;2024-03-06T04:06:00;3.90;1.00
9885;DHT22;4981;50.966;4.842;2024-03-06T04:08:27;3.90;1.00
9885;DHT22;4981;50.966;4.842;2024-03-06T04:10:54;3.80;1.00
9885;DHT22;4981;50.966;4.842;2024-03-06T04:13:21;3.80;1.00
9885;DHT22;4981;50.966;4.842;2024-03-06T04:15:48;3.90;1.00
9885;DHT22;4981;50.966;4.842;2024-03-06T04:18:15;3.80;1.00
9885;DHT22;4981;50.966;4.842;2024-03-06T04:20:42;3.80;1.00
9885;DHT22;4981;50.966;4.842;2024-03-06T04:23:10;3.70;1.00
9885;DHT22;4981;50.966;4.842;2024-03-06T04:25:37;3.70;1.00
9885;DHT22;4981;50.966;4.842;2024-03-06T04:28:05;3.60;1.00
9885;DHT22;4981;50.966;4.842;2024-03-06T04:30:34;3.70;1.00
9885;DHT22;4981;50.966;4.842;2024-03-06T04:33:01;3.70;1.00
9885;DHT22;4981;50.966;4.842;2024-03-06T04:35:28;3.70;1.00
9885;DHT22;4981;50.966;4.842;2024-03-06T04:37:55;3.80;1.00
9885;DHT22;4981;50.966;4.842;2024-03-06T04:40:23;3.90;1.00
9885;DHT22;4981;50.966;4.842;2024-03-06T04:42:51;3.80;1.00
9885;DHT22;4981;50.966;4.842;2024-03-06T04:45:18;3.70;1.00
9885;DHT22;4981;50.966;4.842;2024-03-06T04:47:45;3.60;1.00
9885;DHT22;4981;50.966;4.842;2024-03-06T04:50:12;3.60;1.00
9885;DHT22;4981;50.966;4.842;2024-03-06T04:52:40;3.50;1.00
9885;DHT22;4981;50.966;4.842;2024-03-06T04:55:08;3.40;1.00
9885;DHT22;4981;50.966;4.842;2024-03-06T04:57:37;3.40;1.00
9885;DHT22;4981;50.966;4.842;2024-03-06T05:00:06;3.00;1.00
9885;DHT22;4981;50.966;4.842;2024-03-06T05:02:34;3.70;1.00
9885;DHT22;4981;50.966;4.842;2024-03-06T05:05:02;3.70;1.00
9885;DHT22;4981;50.966;4.842;2024-03-06T05:07:30;3.70;1.00
9885;DHT22;4981;50.966;4.842;2024-03-06T05:09:57;3.70;1.00
9885;DHT22;4981;50.966;4.842;2024-03-06T05:12:24;3.50;1.00
9885;DHT22;4981;50.966;4.842;2024-03-06T05:14:53;3.50;1.00
9885;DHT22;4981;50.966;4.842;2024-03-06T05:17:21;3.50;1.00
9885;DHT22;4981;50.966;4.842;2024-03-06T05:19:49;3.50;1.00
9885;DHT22;4981;50.966;4.842;2024-03-06T05:22:16;3.60;1.00
9885;DHT22;4981;50.966;4.842;2024-03-06T05:24:44;3.50;1.00
9885;DHT22;4981;50.966;4.842;2024-03-06T05:27:11;3.60;1.00
9885;DHT22;4981;50.966;4.842;2024-03-06T05:29:39;3.50;1.00
9885;DHT22;4981;50.966;4.842;2024-03-06T05:32:07;3.50;1.00
9885;DHT22;4981;50.966;4.842;2024-03-06T05:34:34;3.40;1.00
9885;DHT22;4981;50.966;4.842;2024-03-06T05:37:02;3.30;1.00
9885;DHT22;4981;50.966;4.842;2024-03-06T05:39:30;3.40;1.00
9885;DHT22;4981;50.966;4.842;2024-03-06T05:42:00;3.30;1.00
9885;DHT22;4981;50.966;4.842;2024-03-06T05:44:28;3.20;1.00
9885;DHT22;4981;50.966;4.842;2024-03-06T05:46:55;3.10;1.00
9885;DHT22;4981;50.966;4.842;2024-03-06T05:49:24;3.30;1.00
9885;DHT22;4981;50.966;4.842;2024-03-06T05:51:52;3.20;1.00
9885;DHT22;4981;50.966;4.842;2024-03-06T05:54:19;3.20;1.00
9885;DHT22;4981;50.966;4.842;2024-03-06T05:56:48;3.20;1.00
9885;DHT22;4981;50.966;4.842;2024-03-06T05:59:15;3.20;1.00
9885;DHT22;4981;50.966;4.842;2024-03-06T06:01:42;3.10;1.00
9885;DHT22;4981;50.966;4.842;2024-03-06T06:04:10;3.30;1.00
9885;DHT22;4981;50.966;4.842;2024-03-06T06:06:38;3.40;1.00
9885;DHT22;4981;50.966;4.842;2024-03-06T06:09:06;3.40;1.00
9885;DHT22;4981;50.966;4.842;2024-03-06T06:11:38;3.50;1.00
9885;DHT22;4981;50.966;4.842;2024-03-06T06:14:05;3.40;1.00
9885;DHT22;4981;50.966;4.842;2024-03-06T06:16:35;2.30;1.00
9885;DHT22;4981;50.966;4.842;2024-03-06T06:19:03;3.50;1.00
9885;DHT22;4981;50.966;4.842;2024-03-06T06:21:31;3.50;1.00
9885;DHT22;4981;50.966;4.842;2024-03-06T06:23:59;3.40;1.00
9885;DHT22;4981;50.966;4.842;2024-03-06T06:26:26;3.40;1.00
9885;DHT22;4981;50.966;4.842;2024-03-06T06:28:53;3.40;1.00
9885;DHT22;4981;50.966;4.842;2024-03-06T06:31:20;3.60;1.00
9885;DHT22;4981;50.966;4.842;2024-03-06T06:33:48;3.60;1.00
9885;DHT22;4981;50.966;4.842;2024-03-06T06:36:15;3.70;1.00
9885;DHT22;4981;50.966;4.842;2024-03-06T06:38:43;3.70;1.00
9885;DHT22;4981;50.966;4.842;2024-03-06T06:41:11;3.70;1.00
9885;DHT22;4981;50.966;4.842;2024-03-06T06:43:39;3.70;1.00
9885;DHT22;4981;50.966;4.842;2024-03-06T06:46:07;3.70;1.00
9885;DHT22;4981;50.966;4.842;2024-03-06T06:48:34;3.70;1.00
9885;DHT22;4981;50.966;4.842;2024-03-06T06:51:01;2.20;1.00
9885;DHT22;4981;50.966;4.842;2024-03-06T06:53:29;4.00;1.00
9885;DHT22;4981;50.966;4.842;2024-03-06T06:55:55;3.20;1.00
9885;DHT22;4981;50.966;4.842;2024-03-06T06:58:24;4.30;1.00
9885;DHT22;4981;50.966;4.842;2024-03-06T07:00:52;4.40;1.00
9885;DHT22;4981;50.966;4.842;2024-03-06T07:03:19;4.80;1.00
9885;DHT22;4981;50.966;4.842;2024-03-06T07:05:48;4.50;1.00
9885;DHT22;4981;50.966;4.842;2024-03-06T07:08:15;4.50;1.00
9885;DHT22;4981;50.966;4.842;2024-03-06T07:10:42;4.60;1.00
9885;DHT22;4981;50.966;4.842;2024-03-06T07:13:09;4.60;1.00
9885;DHT22;4981;50.966;4.842;2024-03-06T07:15:37;4.70;1.00
9885;DHT22;4981;50.966;4.842;2024-03-06T07:18:05;4.70;1.00
9885;DHT22;4981;50.966;4.842;2024-03-06T07:20:32;5.80;1.00
9885;DHT22;4981;50.966;4.842;2024-03-06T07:22:59;5.40;1.00
9885;DHT22;4981;50.966;4.842;2024-03-06T07:25:26;5.10;1.00
9885;DHT22;4981;50.966;4.842;2024-03-06T07:27:53;5.10;1.00
9885;DHT22;4981;50.966;4.842;2024-03-06T07:30:20;5.10;1.00
9885;DHT22;4981;50.966;4.842;2024-03-06T07:32:49;5.00;1.00
9885;DHT22;4981;50.966;4.842;2024-03-06T07:35:16;5.10;1.00
9885;DHT22;4981;50.966;4.842;2024-03-06T07:37:43;5.10;1.00
9885;DHT22;4981;50.966;4.842;2024-03-06T07:40:11;5.10;1.00
9885;DHT22;4981;50.966;4.842;2024-03-06T07:42:38;5.10;1.00
9885;DHT22;4981;50.966;4.842;2024-03-06T07:45:06;5.20;1.00
9885;DHT22;4981;50.966;4.842;2024-03-06T07:47:34;5.20;1.00
9885;DHT22;4981;50.966;4.842;2024-03-06T07:50:05;5.30;1.00
9885;DHT22;4981;50.966;4.842;2024-03-06T07:52:33;5.40;1.00
9885;DHT22;4981;50.966;4.842;2024-03-06T07:55:01;5.50;1.00
9885;DHT22;4981;50.966;4.842;2024-03-06T07:57:28;5.70;1.00
9885;DHT22;4981;50.966;4.842;2024-03-06T07:59:55;5.70;1.00
9885;DHT22;4981;50.966;4.842;2024-03-06T08:02:22;5.80;1.00
9885;DHT22;4981;50.966;4.842;2024-03-06T08:04:49;5.90;1.00
9885;DHT22;4981;50.966;4.842;2024-03-06T08:07:18;6.00;1.00
9885;DHT22;4981;50.966;4.842;2024-03-06T08:09:45;6.20;1.00
9885;DHT22;4981;50.966;4.842;2024-03-06T08:12:12;6.30;1.00
9885;DHT22;4981;50.966;4.842;2024-03-06T08:14:39;6.20;1.00
9885;DHT22;4981;50.966;4.842;2024-03-06T08:17:06;6.30;1.00
9885;DHT22;4981;50.966;4.842;2024-03-06T08:19:33;6.30;1.00
9885;DHT22;4981;50.966;4.842;2024-03-06T08:22:00;6.60;1.00
9885;DHT22;4981;50.966;4.842;2024-03-06T08:24:29;6.40;1.00
9885;DHT22;4981;50.966;4.842;2024-03-06T08:26:56;6.50;1.00
9885;DHT22;4981;50.966;4.842;2024-03-06T08:29:23;7.70;1.00
9885;DHT22;4981;50.966;4.842;2024-03-06T08:31:50;6.40;1.00
9885;DHT22;4981;50.966;4.842;2024-03-06T08:34:17;6.50;1.00
9885;DHT22;4981;50.966;4.842;2024-03-06T08:36:44;6.80;1.00
9885;DHT22;4981;50.966;4.842;2024-03-06T08:39:11;6.70;1.00
9885;DHT22;4981;50.966;4.842;2024-03-06T08:41:43;6.70;1.00
9885;DHT22;4981;50.966;4.842;2024-03-06T08:44:10;6.70;1.00
9885;DHT22;4981;50.966;4.842;2024-03-06T08:46:37;6.80;1.00
9885;DHT22;4981;50.966;4.842;2024-03-06T08:49:04;6.90;1.00
9885;DHT22;4981;50.966;4.842;2024-03-06T08:51:31;7.00;1.00
9885;DHT22;4981;50.966;4.842;2024-03-06T08:53:58;7.20;1.00
9885;DHT22;4981;50.966;4.842;2024-03-06T08:56:26;7.20;1.00
9885;DHT22;4981;50.966;4.842;2024-03-06T08:58:54;7.20;1.00
9885;DHT22;4981;50.966;4.842;2024-03-06T09:01:21;7.30;1.00
9885;DHT22;4981;50.966;4.842;2024-03-06T09:03:48;7.30;1.00
9885;DHT22;4981;50.966;4.842;2024-03-06T09:06:15;7.50;1.00
9885;DHT22;4981;50.966;4.842;2024-03-06T09:08:42;7.70;1.00
9885;DHT22;4981;50.966;4.842;2024-03-06T09:11:09;7.90;1.00
9885;DHT22;4981;50.966;4.842;2024-03-06T09:13:36;7.70;1.00
9885;DHT22;4981;50.966;4.842;2024-03-06T09:16:05;7.70;1.00
9885;DHT22;4981;50.966;4.842;2024-03-06T09:18:32;7.70;1.00
9885;DHT22;4981;50.966;4.842;2024-03-06T09:20:59;7.80;1.00
9885;DHT22;4981;50.966;4.842;2024-03-06T09:23:27;7.80;1.00
9885;DHT22;4981;50.966;4.842;2024-03-06T09:25:58;7.80;1.00
9885;DHT22;4981;50.966;4.842;2024-03-06T09:28:25;7.90;1.00
9885;DHT22;4981;50.966;4.842;2024-03-06T09:30:52;7.90;1.00
9885;DHT22;4981;50.966;4.842;2024-03-06T09:33:20;7.80;1.00
9885;DHT22;4981;50.966;4.842;2024-03-06T09:35:48;7.80;1.00
9885;DHT22;4981;50.966;4.842;2024-03-06T09:38:15;7.80;1.00
9885;DHT22;4981;50.966;4.842;2024-03-06T09:40:42;7.80;1.00
9885;DHT22;4981;50.966;4.842;2024-03-06T09:43:09;7.80;1.00
9885;DHT22;4981;50.966;4.842;2024-03-06T09:45:36;8.00;1.00
9885;DHT22;4981;50.966;4.842;2024-03-06T09:48:04;8.00;1.00
9885;DHT22;4981;50.966;4.842;2024-03-06T09:50:35;8.10;1.00
9885;DHT22;4981;50.966;4.842;2024-03-06T09:53:08;8.10;1.00
9885;DHT22;4981;50.966;4.842;2024-03-06T09:55:36;8.00;1.00
9885;DHT22;4981;50.966;4.842;2024-03-06T09:58:04;8.30;1.00
9885;DHT22;4981;50.966;4.842;2024-03-06T10:00:32;8.40;1.00
9885;DHT22;4981;50.966;4.842;2024-03-06T10:02:59;8.40;1.00
9885;DHT22;4981;50.966;4.842;2024-03-06T10:05:26;8.30;1.00
9885;DHT22;4981;50.966;4.842;2024-03-06T10:07:55;8.40;1.00
9885;DHT22;4981;50.966;4.842;2024-03-06T10:10:22;8.50;1.00
9885;DHT22;4981;50.966;4.842;2024-03-06T10:12:49;8.70;1.00
9885;DHT22;4981;50.966;4.842;2024-03-06T10:15:16;8.70;1.00
9885;DHT22;4981;50.966;4.842;2024-03-06T10:17:43;8.70;1.00
9885;DHT22;4981;50.966;4.842;2024-03-06T10:20:19;8.70;1.00
9885;DHT22;4981;50.966;4.842;2024-03-06T10:22:48;9.00;1.00
9885;DHT22;4981;50.966;4.842;2024-03-06T10:25:19;8.90;1.00
9885;DHT22;4981;50.966;4.842;2024-03-06T10:27:46;9.00;1.00
9885;DHT22;4981;50.966;4.842;2024-03-06T10:30:14;9.10;1.00
9885;DHT22;4981;50.966;4.842;2024-03-06T10:32:42;8.00;1.00
9885;DHT22;4981;50.966;4.842;2024-03-06T10:35:18;9.00;1.00
9885;DHT22;4981;50.966;4.842;2024-03-06T10:37:46;9.10;1.00
9885;DHT22;4981;50.966;4.842;2024-03-06T10:40:15;9.30;1.00
9885;DHT22;4981;50.966;4.842;2024-03-06T10:42:45;9.40;1.00
9885;DHT22;4981;50.966;4.842;2024-03-06T10:45:14;9.90;1.00
9885;DHT22;4981;50.966;4.842;2024-03-06T10:47:46;9.70;1.00
9885;DHT22;4981;50.966;4.842;2024-03-06T10:50:15;9.40;1.00
9885;DHT22;4981;50.966;4.842;2024-03-06T10:52:43;9.50;1.00
9885;DHT22;4981;50.966;4.842;2024-03-06T10:55:12;9.50;1.00
9885;DHT22;4981;50.966;4.842;2024-03-06T10:57:41;9.60;1.00
9885;DHT22;4981;50.966;4.842;2024-03-06T11:00:11;9.40;1.00
9885;DHT22;4981;50.966;4.842;2024-03-06T11:02:45;9.50;1.00
9885;DHT22;4981;50.966;4.842;2024-03-06T11:05:14;9.60;1.00
9885;DHT22;4981;50.966;4.842;2024-03-06T11:07:43;9.70;1.00
9885;DHT22;4981;50.966;4.842;2024-03-06T11:10:10;9.70;1.00
9885;DHT22;4981;50.966;4.842;2024-03-06T11:12:42;9.80;1.00
9885;DHT22;4981;50.966;4.842;2024-03-06T11:15:14;9.80;1.00
9885;DHT22;4981;50.966;4.842;2024-03-06T11:17:41;9.90;1.00
9885;DHT22;4981;50.966;4.842;2024-03-06T11:20:18;10.10;1.00
9885;DHT22;4981;50.966;4.842;2024-03-06T11:23:04;10.10;1.00
9885;DHT22;4981;50.966;4.842;2024-03-06T11:26:02;10.20;1.00
9885;DHT22;4981;50.966;4.842;2024-03-06T11:28:30;10.10;1.00
9885;DHT22;4981;50.966;4.842;2024-03-06T11:31:00;10.20;1.00
9885;DHT22;4981;50.966;4.842;2024-03-06T11:33:38;10.70;1.00
9885;DHT22;4981;50.966;4.842;2024-03-06T11:36:16;10.50;1.00
9885;DHT22;4981;50.966;4.842;2024-03-06T11:38:47;10.60;1.00
9885;DHT22;4981;50.966;4.842;2024-03-06T11:41:14;10.80;1.00
9885;DHT22;4981;50.966;4.842;2024-03-06T11:43:43;11.40;1.00
9885;DHT22;4981;50.966;4.842;2024-03-06T11:46:14;13.50;1.00
9885;DHT22;4981;50.966;4.842;2024-03-06T11:48:43;14.90;1.00
9885;DHT22;4981;50.966;4.842;2024-03-06T11:51:21;16.20;1.00
9885;DHT22;4981;50.966;4.842;2024-03-06T11:53:52;16.50;1.00
9885;DHT22;4981;50.966;4.842;2024-03-06T11:56:19;16.20;1.00
9885;DHT22;4981;50.966;4.842;2024-03-06T11:58:47;15.40;1.00
9885;DHT22;4981;50.966;4.842;2024-03-06T12:01:15;14.10;1.00
9885;DHT22;4981;50.966;4.842;2024-03-06T12:03:44;13.80;1.00
9885;DHT22;4981;50.966;4.842;2024-03-06T12:06:11;13.90;1.00
9885;DHT22;4981;50.966;4.842;2024-03-06T12:08:39;13.80;1.00
9885;DHT22;4981;50.966;4.842;2024-03-06T12:11:06;13.50;1.00
9885;DHT22;4981;50.966;4.842;2024-03-06T12:13:33;13.30;1.00
9885;DHT22;4981;50.966;4.842;2024-03-06T12:16:05;13.20;1.00
9885;DHT22;4981;50.966;4.842;2024-03-06T12:18:34;12.80;1.00
9885;DHT22;4981;50.966;4.842;2024-03-06T12:21:02;12.40;1.00
9885;DHT22;4981;50.966;4.842;2024-03-06T12:23:29;12.50;1.00
9885;DHT22;4981;50.966;4.842;2024-03-06T12:26:03;13.80;1.00
9885;DHT22;4981;50.966;4.842;2024-03-06T12:28:31;13.80;1.00
9885;DHT22;4981;50.966;4.842;2024-03-06T12:30:58;13.70;1.00
9885;DHT22;4981;50.966;4.842;2024-03-06T12:33:28;13.50;1.00
9885;DHT22;4981;50.966;4.842;2024-03-06T12:36:05;13.00;1.00
9885;DHT22;4981;50.966;4.842;2024-03-06T12:38:36;12.60;1.00
9885;DHT22;4981;50.966;4.842;2024-03-06T12:41:03;12.50;1.00
9885;DHT22;4981;50.966;4.842;2024-03-06T12:43:31;12.20;1.00
9885;DHT22;4981;50.966;4.842;2024-03-06T12:46:00;12.00;1.00
9885;DHT22;4981;50.966;4.842;2024-03-06T12:48:28;12.00;1.00
9885;DHT22;4981;50.966;4.842;2024-03-06T12:50:55;12.20;1.00
9885;DHT22;4981;50.966;4.842;2024-03-06T12:53:31;12.00;1.00
9885;DHT22;4981;50.966;4.842;2024-03-06T12:56:00;12.10;1.00
9885;DHT22;4981;50.966;4.842;2024-03-06T12:58:27;12.20;1.00
9885;DHT22;4981;50.966;4.842;2024-03-06T13:00:56;12.20;1.00
9885;DHT22;4981;50.966;4.842;2024-03-06T13:03:24;12.60;1.00
9885;DHT22;4981;50.966;4.842;2024-03-06T13:05:51;12.50;1.00
9885;DHT22;4981;50.966;4.842;2024-03-06T13:08:18;12.50;1.00
9885;DHT22;4981;50.966;4.842;2024-03-06T13:10:46;12.30;1.00
9885;DHT22;4981;50.966;4.842;2024-03-06T13:13:13;12.30;1.00
9885;DHT22;4981;50.966;4.842;2024-03-06T13:15:40;12.30;1.00
9885;DHT22;4981;50.966;4.842;2024-03-06T13:18:07;12.20;1.00
9885;DHT22;4981;50.966;4.842;2024-03-06T13:20:34;12.40;1.00
9885;DHT22;4981;50.966;4.842;2024-03-06T13:23:02;12.40;1.00
9885;DHT22;4981;50.966;4.842;2024-03-06T13:25:29;12.50;1.00
9885;DHT22;4981;50.966;4.842;2024-03-06T13:27:58;12.40;1.00
9885;DHT22;4981;50.966;4.842;2024-03-06T13:30:25;12.30;1.00
9885;DHT22;4981;50.966;4.842;2024-03-06T13:32:52;12.10;1.00
9885;DHT22;4981;50.966;4.842;2024-03-06T13:35:21;11.90;1.00
9885;DHT22;4981;50.966;4.842;2024-03-06T13:37:48;11.80;1.00
9885;DHT22;4981;50.966;4.842;2024-03-06T13:40:15;11.90;1.00
9885;DHT22;4981;50.966;4.842;2024-03-06T13:42:43;11.10;1.00
9885;DHT22;4981;50.966;4.842;2024-03-06T13:45:11;11.90;1.00
9885;DHT22;4981;50.966;4.842;2024-03-06T13:47:38;12.00;1.00
9885;DHT22;4981;50.966;4.842;2024-03-06T13:50:07;12.00;1.00
9885;DHT22;4981;50.966;4.842;2024-03-06T13:52:35;12.10;1.00
9885;DHT22;4981;50.966;4.842;2024-03-06T13:55:02;12.40;1.00
9885;DHT22;4981;50.966;4.842;2024-03-06T13:57:30;12.60;1.00
9885;DHT22;4981;50.966;4.842;2024-03-06T13:59:59;12.60;1.00
9885;DHT22;4981;50.966;4.842;2024-03-06T14:02:28;12.80;1.00
9885;DHT22;4981;50.966;4.842;2024-03-06T14:04:54;13.30;1.00
9885;DHT22;4981;50.966;4.842;2024-03-06T14:07:21;14.10;1.00
9885;DHT22;4981;50.966;4.842;2024-03-06T14:09:50;14.80;1.00
9885;DHT22;4981;50.966;4.842;2024-03-06T14:12:17;14.80;1.00
9885;DHT22;4981;50.966;4.842;2024-03-06T14:14:44;14.70;1.00
9885;DHT22;4981;50.966;4.842;2024-03-06T14:17:11;14.90;1.00
9885;DHT22;4981;50.966;4.842;2024-03-06T14:19:40;15.80;1.00
9885;DHT22;4981;50.966;4.842;2024-03-06T14:22:08;16.50;1.00
9885;DHT22;4981;50.966;4.842;2024-03-06T14:24:35;15.80;1.00
9885;DHT22;4981;50.966;4.842;2024-03-06T14:27:02;15.60;1.00
9885;DHT22;4981;50.966;4.842;2024-03-06T14:29:30;15.70;1.00
9885;DHT22;4981;50.966;4.842;2024-03-06T14:31:57;15.40;1.00
9885;DHT22;4981;50.966;4.842;2024-03-06T14:34:24;15.70;1.00
9885;DHT22;4981;50.966;4.842;2024-03-06T14:36:52;16.60;1.00
9885;DHT22;4981;50.966;4.842;2024-03-06T14:39:20;16.30;1.00
9885;DHT22;4981;50.966;4.842;2024-03-06T14:41:49;16.10;1.00
9885;DHT22;4981;50.966;4.842;2024-03-06T14:44:16;15.30;1.00
9885;DHT22;4981;50.966;4.842;2024-03-06T14:46:43;15.00;1.00
9885;DHT22;4981;50.966;4.842;2024-03-06T14:49:10;15.40;1.00
9885;DHT22;4981;50.966;4.842;2024-03-06T14:51:37;15.30;1.00
9885;DHT22;4981;50.966;4.842;2024-03-06T14:54:05;15.10;1.00
9885;DHT22;4981;50.966;4.842;2024-03-06T14:56:32;15.10;1.00
9885;DHT22;4981;50.966;4.842;2024-03-06T14:58:59;14.60;1.00
9885;DHT22;4981;50.966;4.842;2024-03-06T15:01:26;14.50;1.00
9885;DHT22;4981;50.966;4.842;2024-03-06T15:03:54;13.90;1.00
9885;DHT22;4981;50.966;4.842;2024-03-06T15:06:21;13.70;1.00
9885;DHT22;4981;50.966;4.842;2024-03-06T15:08:48;13.30;1.00
9885;DHT22;4981;50.966;4.842;2024-03-06T15:11:17;13.00;1.00
9885;DHT22;4981;50.966;4.842;2024-03-06T15:13:44;13.00;1.00
9885;DHT22;4981;50.966;4.842;2024-03-06T15:16:11;12.80;1.00
9885;DHT22;4981;50.966;4.842;2024-03-06T15:18:38;12.70;1.00
9885;DHT22;4981;50.966;4.842;2024-03-06T15:21:06;12.90;1.00
9885;DHT22;4981;50.966;4.842;2024-03-06T15:23:34;13.00;1.00
9885;DHT22;4981;50.966;4.842;2024-03-06T15:26:02;12.70;1.00
9885;DHT22;4981;50.966;4.842;2024-03-06T15:28:30;13.50;1.00
9885;DHT22;4981;50.966;4.842;2024-03-06T15:30:57;13.10;1.00
9885;DHT22;4981;50.966;4.842;2024-03-06T15:33:24;13.80;1.00
9885;DHT22;4981;50.966;4.842;2024-03-06T15:35:51;14.20;1.00
9885;DHT22;4981;50.966;4.842;2024-03-06T15:38:18;14.40;1.00
9885;DHT22;4981;50.966;4.842;2024-03-06T15:40:46;14.50;1.00
9885;DHT22;4981;50.966;4.842;2024-03-06T15:43:16;14.40;1.00
9885;DHT22;4981;50.966;4.842;2024-03-06T15:45:45;15.10;1.00
9885;DHT22;4981;50.966;4.842;2024-03-06T15:48:12;15.50;1.00
9885;DHT22;4981;50.966;4.842;2024-03-06T15:50:40;15.90;1.00
9885;DHT22;4981;50.966;4.842;2024-03-06T15:53:07;15.70;1.00
9885;DHT22;4981;50.966;4.842;2024-03-06T15:55:34;15.40;1.00
9885;DHT22;4981;50.966;4.842;2024-03-06T15:58:02;15.20;1.00
9885;DHT22;4981;50.966;4.842;2024-03-06T16:00:29;14.80;1.00
9885;DHT22;4981;50.966;4.842;2024-03-06T16:02:58;14.60;1.00
9885;DHT22;4981;50.966;4.842;2024-03-06T16:05:25;14.40;1.00
9885;DHT22;4981;50.966;4.842;2024-03-06T16:07:56;14.30;1.00
9885;DHT22;4981;50.966;4.842;2024-03-06T16:10:25;14.60;1.00
9885;DHT22;4981;50.966;4.842;2024-03-06T16:12:52;14.30;1.00
9885;DHT22;4981;50.966;4.842;2024-03-06T16:15:19;13.80;1.00
9885;DHT22;4981;50.966;4.842;2024-03-06T16:17:46;13.40;1.00
9885;DHT22;4981;50.966;4.842;2024-03-06T16:20:15;13.10;1.00
9885;DHT22;4981;50.966;4.842;2024-03-06T16:22:42;12.70;1.00
9885;DHT22;4981;50.966;4.842;2024-03-06T16:25:09;12.80;1.00
9885;DHT22;4981;50.966;4.842;2024-03-06T16:27:36;12.80;1.00
9885;DHT22;4981;50.966;4.842;2024-03-06T16:30:04;12.80;1.00
9885;DHT22;4981;50.966;4.842;2024-03-06T16:32:31;12.90;1.00